HAJ weather

Hannover Airport
Hannover, Lower Saxony, Germany

Public forecast

Using degrees Celsius for public forecast. Weather courtesy of forecast.io.

Current aviation weather report (METAR) for Hannover Airport

Retrieved 2019/10/19 00:20 UTC (28 minutes ago):

EDDV 190020Z 18006KT 150V220 CAVOK 10/06 Q1008

Aviation forecast (TAF) for Hannover Airport

Retrieved 2019-10-19 00:27 UTC (21 minutes ago):

TAF EDDV 182300Z 1900/1924 17010KT 9999 FEW045 PROB30 TEMPO 1912/1919 SHRA BKN020CB BECMG 1915/1917 18005KT